createdAt,value
2022-09-01T00:00:18.170Z,72.31
2022-09-01T00:01:21.752Z,72.34
2022-09-01T00:02:25.305Z,72.46
2022-09-01T00:04:01.830Z,72.78
2022-09-01T00:05:05.709Z,72.70
2022-09-01T00:06:09.323Z,72.65
2022-09-01T00:07:45.285Z,72.77
2022-09-01T00:08:48.764Z,72.78
2022-09-01T00:09:52.263Z,72.86
2022-09-01T00:11:27.995Z,73.19
2022-09-01T00:12:37.248Z,73.13
2022-09-01T00:13:40.795Z,73.24
2022-09-01T00:15:28.162Z,73.35
2022-09-01T00:16:32.092Z,73.30
2022-09-01T00:17:38.222Z,73.20
2022-09-01T00:19:13.980Z,73.28
2022-09-01T00:20:20.472Z,73.29
2022-09-01T00:21:24.502Z,73.22
2022-09-01T00:23:00.289Z,73.31
2022-09-01T00:24:03.913Z,73.38
2022-09-01T00:25:07.596Z,73.73
2022-09-01T00:26:43.326Z,73.66
2022-09-01T00:27:46.918Z,73.68
2022-09-01T00:28:50.450Z,73.68
2022-09-01T00:30:30.374Z,73.50
2022-09-01T00:31:35.951Z,73.55
2022-09-01T00:32:39.566Z,73.50
2022-09-01T00:34:15.495Z,73.37
2022-09-01T00:35:19.139Z,73.46
2022-09-01T00:36:23.988Z,73.49
2022-09-01T00:37:59.814Z,73.66
2022-09-01T00:39:05.104Z,73.55
2022-09-01T00:40:08.790Z,73.47
2022-09-01T00:41:45.156Z,73.82
2022-09-01T00:42:48.619Z,73.81
2022-09-01T00:43:52.167Z,73.96
2022-09-01T00:45:28.943Z,74.04
2022-09-01T00:46:36.993Z,74.07
2022-09-01T00:47:54.389Z,73.96
2022-09-01T00:49:40.890Z,74.19
2022-09-01T00:50:44.465Z,74.15
2022-09-01T00:51:53.061Z,74.17
2022-09-01T00:53:28.894Z,74.20
2022-09-01T00:54:32.495Z,74.33
2022-09-01T00:55:38.351Z,74.38
2022-09-01T00:57:14.055Z,74.21
2022-09-01T00:58:25.880Z,74.11
2022-09-01T00:59:29.438Z,73.80
2022-09-01T01:00:17.775Z,73.80
2022-09-01T01:01:22.843Z,73.70
2022-09-01T01:02:28.100Z,73.79
2022-09-01T01:04:04.204Z,73.84
2022-09-01T01:05:07.742Z,73.91
2022-09-01T01:06:14.076Z,73.97
2022-09-01T01:07:55.077Z,73.90
2022-09-01T01:08:58.780Z,73.89
2022-09-01T01:10:02.329Z,73.90
2022-09-01T01:11:38.095Z,73.91
2022-09-01T01:12:41.681Z,73.92
2022-09-01T01:13:45.157Z,74.11
2022-09-01T01:15:20.862Z,74.17
2022-09-01T01:16:24.406Z,74.13
2022-09-01T01:17:28.304Z,73.93
2022-09-01T01:19:10.169Z,73.65
2022-09-01T01:20:19.498Z,73.67
2022-09-01T01:21:23.186Z,73.62
2022-09-01T01:22:58.930Z,73.55
2022-09-01T01:24:02.545Z,73.66
2022-09-01T01:25:06.123Z,73.64
2022-09-01T01:26:43.316Z,73.64
2022-09-01T01:27:48.990Z,73.63
2022-09-01T01:28:52.690Z,73.54
2022-09-01T01:30:31.531Z,73.44
2022-09-01T01:31:35.529Z,73.47
2022-09-01T01:32:39.021Z,73.35
2022-09-01T01:34:16.439Z,73.27
2022-09-01T01:35:19.901Z,73.30
2022-09-01T01:36:23.425Z,73.25
2022-09-01T01:37:59.033Z,73.26
2022-09-01T01:39:02.770Z,73.39
2022-09-01T01:40:06.709Z,73.43
2022-09-01T01:41:43.163Z,73.40
2022-09-01T01:42:46.842Z,73.38
2022-09-01T01:43:50.330Z,73.38
2022-09-01T01:45:26.368Z,73.33
2022-09-01T01:46:30.276Z,73.29
2022-09-01T01:47:33.809Z,73.22
2022-09-01T01:49:09.494Z,73.14
2022-09-01T01:50:13.008Z,73.33
2022-09-01T01:51:16.780Z,73.42
2022-09-01T01:53:00.903Z,73.48
2022-09-01T01:54:09.591Z,73.51
2022-09-01T01:55:13.412Z,73.54
2022-09-01T01:56:49.030Z,73.47
2022-09-01T01:57:52.608Z,73.39
2022-09-01T01:58:57.683Z,73.37
2022-09-01T02:00:18.709Z,73.36
2022-09-01T02:01:30.829Z,73.36
2022-09-01T02:02:35.081Z,73.42
2022-09-01T02:04:11.657Z,73.41
2022-09-01T02:05:15.801Z,73.46
2022-09-01T02:06:19.235Z,73.38
2022-09-01T02:07:54.939Z,73.57
2022-09-01T02:08:58.693Z,73.55
2022-09-01T02:10:02.258Z,73.49
2022-09-01T02:11:37.981Z,73.55
2022-09-01T02:12:41.497Z,73.62
2022-09-01T02:13:45.176Z,73.64
2022-09-01T02:15:21.100Z,73.74
2022-09-01T02:16:24.808Z,73.70
2022-09-01T02:17:29.039Z,73.68
2022-09-01T02:19:04.779Z,73.60
2022-09-01T02:20:08.321Z,73.56
2022-09-01T02:21:16.352Z,73.50
2022-09-01T02:22:53.569Z,73.60
2022-09-01T02:23:57.332Z,73.58
2022-09-01T02:25:01.275Z,73.49
2022-09-01T02:27:07.571Z,73.45
2022-09-01T02:28:11.416Z,73.39
2022-09-01T02:29:15.065Z,73.25
2022-09-01T02:30:59.497Z,73.35
2022-09-01T02:32:03.530Z,73.34
2022-09-01T02:33:07.097Z,73.46
2022-09-01T02:34:42.857Z,73.42
2022-09-01T02:35:46.599Z,73.48
2022-09-01T02:36:50.307Z,73.43
2022-09-01T02:38:26.379Z,73.31
2022-09-01T02:39:34.120Z,73.36
2022-09-01T02:40:37.908Z,73.39
2022-09-01T02:42:13.739Z,73.39
2022-09-01T02:43:17.261Z,73.31
2022-09-01T02:44:20.770Z,73.32
2022-09-01T02:46:00.375Z,73.24
2022-09-01T02:47:06.641Z,73.19
2022-09-01T02:48:10.948Z,73.11
2022-09-01T02:49:49.200Z,73.09
2022-09-01T02:50:52.798Z,72.97
2022-09-01T02:51:56.374Z,73.01
2022-09-01T02:53:32.131Z,73.01
2022-09-01T02:54:35.816Z,73.01
2022-09-01T02:55:39.394Z,72.94
2022-09-01T02:57:17.557Z,72.79
2022-09-01T02:58:24.969Z,72.84
2022-09-01T02:59:29.204Z,72.79
2022-09-01T03:00:18.141Z,72.78
2022-09-01T03:01:21.899Z,72.65
2022-09-01T03:02:25.804Z,72.57
2022-09-01T03:04:02.006Z,72.48
2022-09-01T03:05:06.186Z,72.56
2022-09-01T03:06:10.020Z,72.63
2022-09-01T03:07:45.787Z,72.65
2022-09-01T03:08:51.002Z,72.70
2022-09-01T03:09:54.538Z,72.77
2022-09-01T03:11:30.384Z,72.79
2022-09-01T03:12:34.107Z,72.76
2022-09-01T03:13:40.133Z,72.83
2022-09-01T03:15:18.965Z,72.69
2022-09-01T03:16:22.591Z,72.61
2022-09-01T03:17:27.741Z,72.61
2022-09-01T03:19:03.808Z,72.66
2022-09-01T03:20:07.324Z,72.57
2022-09-01T03:21:11.166Z,72.50
2022-09-01T03:22:47.036Z,72.62
2022-09-01T03:23:50.611Z,72.66
2022-09-01T03:24:54.376Z,72.85
2022-09-01T03:26:30.139Z,72.80
2022-09-01T03:27:36.754Z,73.02
2022-09-01T03:28:42.399Z,72.96
2022-09-01T03:30:18.176Z,73.03
2022-09-01T03:31:23.457Z,73.08
2022-09-01T03:32:29.787Z,73.00
2022-09-01T03:34:05.482Z,72.86
2022-09-01T03:35:09.043Z,72.77
2022-09-01T03:36:21.032Z,72.74
2022-09-01T03:37:56.783Z,72.70
2022-09-01T03:39:00.692Z,72.65
2022-09-01T03:40:09.092Z,72.56
2022-09-01T03:41:45.453Z,72.48
2022-09-01T03:42:49.013Z,72.50
2022-09-01T03:43:54.352Z,72.50
2022-09-01T03:45:30.252Z,72.68
2022-09-01T03:46:37.782Z,72.69
2022-09-01T03:47:42.892Z,72.80
2022-09-01T03:49:18.616Z,72.78
2022-09-01T03:50:22.123Z,72.82
2022-09-01T03:51:25.828Z,72.91
2022-09-01T03:53:01.499Z,73.03
2022-09-01T03:54:04.943Z,73.07
2022-09-01T03:55:08.533Z,73.01
2022-09-01T03:56:45.787Z,72.82
2022-09-01T03:57:49.518Z,72.81
2022-09-01T03:58:56.900Z,72.69
2022-09-01T04:00:17.958Z,72.61
2022-09-01T04:01:29.776Z,72.52
2022-09-01T04:02:33.829Z,72.41
2022-09-01T04:04:22.646Z,72.28
2022-09-01T04:05:47.182Z,72.28
2022-09-01T04:06:50.615Z,72.28
2022-09-01T04:07:59.951Z,72.34
2022-09-01T04:09:35.265Z,72.35
2022-09-01T04:10:39.162Z,72.26
2022-09-01T04:11:51.587Z,72.24
2022-09-01T04:13:28.713Z,72.16
2022-09-01T04:14:34.947Z,72.16
2022-09-01T04:15:38.239Z,72.18
2022-09-01T04:17:13.631Z,72.21
2022-09-01T04:18:22.609Z,72.36
2022-09-01T04:19:26.759Z,72.42
2022-09-01T04:21:07.233Z,72.56
2022-09-01T04:22:11.383Z,72.48
2022-09-01T04:23:14.478Z,72.41
2022-09-01T04:24:50.964Z,72.47
2022-09-01T04:25:54.240Z,72.48
2022-09-01T04:26:57.318Z,72.50
2022-09-01T04:28:32.369Z,72.44
2022-09-01T04:29:35.588Z,72.40
2022-09-01T04:30:45.329Z,72.35
2022-09-01T04:32:23.209Z,72.32
2022-09-01T04:33:26.444Z,72.42
2022-09-01T04:34:29.628Z,72.41
2022-09-01T04:36:05.114Z,72.50
2022-09-01T04:37:08.561Z,72.48
2022-09-01T04:38:11.568Z,72.45
2022-09-01T04:39:54.842Z,72.41
2022-09-01T04:40:59.519Z,72.47
2022-09-01T04:42:02.519Z,72.66
2022-09-01T04:43:37.702Z,72.68
2022-09-01T04:44:40.803Z,72.80
2022-09-01T04:45:51.722Z,72.84
2022-09-01T04:47:27.309Z,72.83
2022-09-01T04:48:35.442Z,72.96
2022-09-01T04:49:45.333Z,73.02
2022-09-01T04:51:20.656Z,73.01
2022-09-01T04:52:23.721Z,73.05
2022-09-01T04:53:28.762Z,73.11
2022-09-01T04:55:04.084Z,73.09
2022-09-01T04:56:07.363Z,73.13
2022-09-01T04:57:10.428Z,73.22
2022-09-01T04:58:50.805Z,73.18
2022-09-01T04:59:54.179Z,73.25
2022-09-01T05:00:18.219Z,73.35
2022-09-01T05:01:21.970Z,73.33
2022-09-01T05:02:25.911Z,73.28
2022-09-01T05:04:05.554Z,73.25
2022-09-01T05:05:08.802Z,73.32
2022-09-01T05:06:12.082Z,73.25
2022-09-01T05:07:47.258Z,73.27
2022-09-01T05:08:51.713Z,73.30
2022-09-01T05:09:59.279Z,73.35
2022-09-01T05:11:36.615Z,73.36
2022-09-01T05:12:39.775Z,73.43
2022-09-01T05:13:42.891Z,73.39
2022-09-01T05:15:17.929Z,73.53
2022-09-01T05:16:24.848Z,73.47
2022-09-01T05:17:29.359Z,73.40
2022-09-01T05:19:04.841Z,73.49
2022-09-01T05:20:07.996Z,73.53
2022-09-01T05:21:11.005Z,73.47
2022-09-01T05:22:46.211Z,73.59
2022-09-01T05:23:49.247Z,73.61
2022-09-01T05:24:55.070Z,73.60
2022-09-01T05:26:30.645Z,73.51
2022-09-01T05:27:33.920Z,73.48
2022-09-01T05:28:36.898Z,73.68
2022-09-01T05:30:12.061Z,73.51
2022-09-01T05:31:15.591Z,73.54
2022-09-01T05:32:19.122Z,73.62
2022-09-01T05:33:54.514Z,73.58
2022-09-01T05:35:00.240Z,73.41
2022-09-01T05:36:12.177Z,73.28
2022-09-01T05:37:47.387Z,73.24
2022-09-01T05:38:50.592Z,73.37
2022-09-01T05:39:54.110Z,73.34
2022-09-01T05:41:30.991Z,73.18
2022-09-01T05:42:35.490Z,73.18
2022-09-01T05:43:38.650Z,72.97
2022-09-01T05:45:19.157Z,72.85
2022-09-01T05:46:53.864Z,72.90
2022-09-01T05:48:06.515Z,72.82
2022-09-01T05:49:42.221Z,72.57
2022-09-01T05:50:45.311Z,72.52
2022-09-01T05:52:03.129Z,72.60
2022-09-01T05:53:41.122Z,72.53
2022-09-01T05:54:47.582Z,72.52
2022-09-01T05:55:54.396Z,72.30
2022-09-01T05:57:40.778Z,72.16
2022-09-01T05:59:27.266Z,72.21
2022-09-01T06:00:18.081Z,72.08
2022-09-01T06:01:21.403Z,72.07
2022-09-01T06:02:31.113Z,72.15
2022-09-01T06:04:08.582Z,72.06
2022-09-01T06:05:12.167Z,72.02
2022-09-01T06:06:15.529Z,71.84
2022-09-01T06:08:22.083Z,71.55
2022-09-01T06:09:27.514Z,71.46
2022-09-01T06:10:30.863Z,71.66
2022-09-01T06:12:05.822Z,71.67
2022-09-01T06:13:08.886Z,71.32
2022-09-01T06:14:20.659Z,71.17
2022-09-01T06:15:55.847Z,71.22
2022-09-01T06:16:59.392Z,70.99
2022-09-01T06:18:03.273Z,70.77
2022-09-01T06:19:43.190Z,70.52
2022-09-01T06:20:47.763Z,70.21
2022-09-01T06:21:50.977Z,69.95
2022-09-01T06:23:26.443Z,69.63
2022-09-01T06:24:30.492Z,69.66
2022-09-01T06:25:47.156Z,69.33
2022-09-01T06:27:22.115Z,68.99
2022-09-01T06:28:25.373Z,68.91
2022-09-01T06:29:28.744Z,68.65
2022-09-01T06:31:09.968Z,68.56
2022-09-01T06:32:13.578Z,68.32
2022-09-01T06:33:16.714Z,67.77
2022-09-01T06:34:51.946Z,67.61
2022-09-01T06:35:57.020Z,67.49
2022-09-01T06:37:01.228Z,67.54
2022-09-01T06:38:36.466Z,67.27
2022-09-01T06:39:39.842Z,67.08
2022-09-01T06:40:43.583Z,66.87
2022-09-01T06:42:24.292Z,67.04
2022-09-01T06:43:27.692Z,66.78
2022-09-01T06:44:31.396Z,66.50
2022-09-01T06:46:10.763Z,66.33
2022-09-01T06:47:14.516Z,66.45
2022-09-01T06:48:17.818Z,66.15
2022-09-01T06:49:57.771Z,65.80
2022-09-01T06:52:03.183Z,65.31
2022-09-01T06:53:38.841Z,65.49
2022-09-01T06:55:14.511Z,65.10
2022-09-01T06:56:18.664Z,65.35
2022-09-01T07:00:18.882Z,64.77
2022-09-01T07:01:25.723Z,64.68
2022-09-01T07:44:44.110Z,55.64
2022-09-01T07:46:42.800Z,55.13
2022-09-01T07:49:31.840Z,55.06
2022-09-01T07:52:51.999Z,55.34
2022-09-01T07:53:55.237Z,54.31
2022-09-01T07:54:58.708Z,54.31
2022-09-01T07:56:39.851Z,54.75
2022-09-01T07:57:43.429Z,53.35
2022-09-01T07:58:46.726Z,53.56
2022-09-01T08:00:18.410Z,53.14
2022-09-01T08:01:28.151Z,53.57
2022-09-01T08:02:35.282Z,52.91
2022-09-01T08:04:16.291Z,52.48
2022-09-01T08:05:19.911Z,52.50
2022-09-01T08:06:23.343Z,52.23
2022-09-01T08:08:18.955Z,51.99
2022-09-01T08:09:44.310Z,52.25
2022-09-01T08:11:03.933Z,51.80
2022-09-01T08:13:24.708Z,52.26
2022-09-01T08:14:40.053Z,50.95
2022-09-01T08:16:59.103Z,50.80
2022-09-01T08:19:35.803Z,50.35
2022-09-01T08:20:42.938Z,50.05
2022-09-01T08:21:46.484Z,50.43
2022-09-01T08:23:22.934Z,49.54
2022-09-01T08:24:26.577Z,49.46
2022-09-01T08:25:30.914Z,49.00
2022-09-01T08:27:06.549Z,48.99
2022-09-01T08:28:10.093Z,48.28
2022-09-01T08:29:19.370Z,48.57
2022-09-01T08:30:58.674Z,47.54
2022-09-01T08:32:11.701Z,47.43
2022-09-01T08:33:16.826Z,47.17
2022-09-01T08:34:52.640Z,47.53
2022-09-01T08:35:57.306Z,47.39
2022-09-01T08:37:06.961Z,46.58
2022-09-01T08:38:42.656Z,46.85
2022-09-01T08:39:46.767Z,46.43
2022-09-01T08:40:51.547Z,46.73
2022-09-01T08:42:38.780Z,45.95
2022-09-01T08:43:42.326Z,46.58
2022-09-01T08:44:46.246Z,45.76
2022-09-01T08:46:22.044Z,45.87
2022-09-01T08:47:58.314Z,45.81
2022-09-01T08:50:29.870Z,44.84
2022-09-01T08:52:13.080Z,44.46
2022-09-01T08:53:17.926Z,44.79
2022-09-01T08:54:35.794Z,44.47
2022-09-01T08:56:11.929Z,44.16
2022-09-01T08:57:15.555Z,43.93
2022-09-01T08:58:19.447Z,44.32
2022-09-01T08:59:57.609Z,43.91
2022-09-01T09:00:18.483Z,43.91
2022-09-01T09:01:23.585Z,44.39
2022-09-01T09:02:27.445Z,44.29
2022-09-01T09:04:03.677Z,44.48
2022-09-01T09:05:16.110Z,43.90
2022-09-01T09:06:19.816Z,43.72
2022-09-01T09:08:06.557Z,43.01
2022-09-01T09:09:14.347Z,42.64
2022-09-01T09:10:39.531Z,42.80
2022-09-01T09:12:17.246Z,42.39
2022-09-01T09:13:29.925Z,43.10
2022-09-01T09:14:33.473Z,42.30
2022-09-01T09:16:14.762Z,42.18
2022-09-01T09:17:18.558Z,42.17
2022-09-01T09:18:55.826Z,41.75
2022-09-01T09:20:32.084Z,42.11
2022-09-01T09:21:39.208Z,42.13
2022-09-01T09:22:42.721Z,42.67
2022-09-01T09:24:27.239Z,42.30
2022-09-01T09:25:40.026Z,42.10
2022-09-01T09:26:49.088Z,41.92
2022-09-01T09:28:25.994Z,41.88
2022-09-01T09:29:29.995Z,41.95
2022-09-01T09:30:33.259Z,41.90
2022-09-01T09:32:31.586Z,42.05
2022-09-01T09:34:44.671Z,41.89
2022-09-01T09:35:47.831Z,41.29
2022-09-01T09:37:23.869Z,41.49
2022-09-01T09:38:29.781Z,41.75
2022-09-01T09:39:35.698Z,40.98
2022-09-01T09:41:36.203Z,41.22
2022-09-01T09:42:42.504Z,40.65
2022-09-01T09:43:50.189Z,40.81
2022-09-01T09:45:29.762Z,41.63
2022-09-01T09:46:35.732Z,41.51
2022-09-01T09:47:49.615Z,40.55
2022-09-01T09:49:44.234Z,40.35
2022-09-01T09:50:51.685Z,41.04
2022-09-01T09:51:58.839Z,40.81
2022-09-01T09:53:35.238Z,40.74
2022-09-01T09:54:38.920Z,40.20
2022-09-01T09:55:42.238Z,40.10
2022-09-01T09:57:22.402Z,40.61
2022-09-01T09:58:25.659Z,39.68
2022-09-01T09:59:59.149Z,40.08
2022-09-01T10:00:17.627Z,39.62
2022-09-01T10:01:24.306Z,39.15
2022-09-01T10:02:33.750Z,37.89
2022-09-01T10:04:16.344Z,38.78
2022-09-01T10:05:20.375Z,38.94
2022-09-01T10:06:24.548Z,38.70
2022-09-01T10:08:03.863Z,38.67
2022-09-01T10:09:12.567Z,39.36
2022-09-01T10:10:18.491Z,39.48
2022-09-01T10:11:54.874Z,38.99
2022-09-01T10:12:59.370Z,37.99
2022-09-01T10:14:08.246Z,37.83
2022-09-01T10:16:28.013Z,37.36
2022-09-01T10:17:36.074Z,37.37
2022-09-01T10:19:16.189Z,37.75
2022-09-01T10:20:58.576Z,37.71
2022-09-01T10:22:02.240Z,37.10
2022-09-01T10:23:15.315Z,37.71
2022-09-01T10:25:20.044Z,37.78
2022-09-01T10:26:25.127Z,38.36
2022-09-01T10:27:28.688Z,37.68
2022-09-01T10:29:18.034Z,37.73
2022-09-01T10:30:53.266Z,38.06
2022-09-01T10:32:45.688Z,38.13
2022-09-01T10:34:47.903Z,38.18
2022-09-01T10:35:53.922Z,38.36
2022-09-01T10:37:03.306Z,38.67
2022-09-01T10:38:52.648Z,38.16
2022-09-01T10:40:31.027Z,38.47
2022-09-01T10:41:42.705Z,39.33
2022-09-01T10:43:36.236Z,39.19
2022-09-01T10:44:49.978Z,38.44
2022-09-01T10:46:05.706Z,38.44
2022-09-01T10:48:08.528Z,36.82
2022-09-01T10:49:38.941Z,36.83
2022-09-01T10:50:50.421Z,37.54
2022-09-01T10:52:57.269Z,37.39
2022-09-01T10:54:08.302Z,37.95
2022-09-01T10:55:24.495Z,36.71
2022-09-01T10:57:27.752Z,37.21
2022-09-01T10:59:33.666Z,37.03
2022-09-01T11:00:40.869Z,36.80
2022-09-01T11:03:29.572Z,36.30
2022-09-01T11:04:51.310Z,36.79
2022-09-01T11:06:33.886Z,37.57
2022-09-01T11:08:42.287Z,36.59
2022-09-01T11:09:57.435Z,37.14
2022-09-01T11:12:02.217Z,37.16
2022-09-01T11:13:15.836Z,37.43
2022-09-01T11:14:19.443Z,38.31
2022-09-01T11:16:05.854Z,35.28
2022-09-01T11:17:38.803Z,34.70
2022-09-01T11:18:42.424Z,35.92
2022-09-01T11:20:19.411Z,35.18
2022-09-01T11:21:25.718Z,35.60
2022-09-01T11:22:32.326Z,36.03
2022-09-01T11:24:10.865Z,34.81
2022-09-01T11:25:18.466Z,35.07
2022-09-01T11:26:59.822Z,35.51
2022-09-01T11:28:35.599Z,35.25
2022-09-01T11:29:39.413Z,35.33
2022-09-01T11:30:47.737Z,35.15
2022-09-01T11:32:24.404Z,35.69
2022-09-01T11:33:33.373Z,34.87
2022-09-01T11:34:37.375Z,35.07
2022-09-01T11:36:13.877Z,35.07
2022-09-01T11:37:18.112Z,35.19
2022-09-01T11:38:26.455Z,34.73
2022-09-01T11:40:05.972Z,34.40
2022-09-01T11:41:13.322Z,35.24
2022-09-01T11:42:16.758Z,35.03
2022-09-01T11:44:08.607Z,34.27
2022-09-01T11:45:12.409Z,34.80
2022-09-01T11:46:24.487Z,32.87
2022-09-01T11:48:06.378Z,32.51
2022-09-01T11:49:09.885Z,32.53
2022-09-01T11:50:13.257Z,33.36
2022-09-01T11:51:55.665Z,33.43
2022-09-01T11:53:04.520Z,34.22
2022-09-01T11:54:08.720Z,33.21
2022-09-01T11:55:44.275Z,32.96
2022-09-01T11:56:47.691Z,33.04
2022-09-01T11:57:51.278Z,32.74
2022-09-01T11:59:30.568Z,34.09
2022-09-01T12:00:17.799Z,32.72
2022-09-01T12:01:20.867Z,33.01
2022-09-01T12:02:24.572Z,32.80
2022-09-01T12:04:02.257Z,33.69
2022-09-01T12:05:05.303Z,33.40
2022-09-01T12:06:08.369Z,33.33
2022-09-01T12:07:43.173Z,32.95
2022-09-01T12:08:46.189Z,33.54
2022-09-01T12:09:49.078Z,33.09
2022-09-01T12:11:23.961Z,33.22
2022-09-01T12:12:27.531Z,32.11
2022-09-01T12:13:30.588Z,32.99
2022-09-01T12:15:13.776Z,32.31
2022-09-01T12:16:24.726Z,32.50
2022-09-01T12:17:28.137Z,32.37
2022-09-01T12:19:03.222Z,31.77
2022-09-01T12:20:06.470Z,32.85
2022-09-01T12:21:15.020Z,32.72
2022-09-01T12:22:50.340Z,32.00
2022-09-01T12:23:53.543Z,32.32
2022-09-01T12:24:56.627Z,32.04
2022-09-01T12:26:31.653Z,32.14
2022-09-01T12:27:34.827Z,32.14
2022-09-01T12:28:38.873Z,32.76
2022-09-01T12:30:18.656Z,32.42
2022-09-01T12:31:22.022Z,31.77
2022-09-01T12:32:25.764Z,32.11
2022-09-01T12:34:17.587Z,32.62
2022-09-01T12:35:20.609Z,33.63
2022-09-01T12:36:23.521Z,33.16
2022-09-01T12:38:00.609Z,34.46
2022-09-01T12:39:10.451Z,33.53
2022-09-01T12:40:14.887Z,32.55
2022-09-01T12:41:50.908Z,32.05
2022-09-01T12:42:55.240Z,31.84
2022-09-01T12:44:00.764Z,32.39
2022-09-01T12:45:37.055Z,32.94
2022-09-01T12:46:40.287Z,31.24
2022-09-01T12:47:44.318Z,31.33
2022-09-01T12:49:22.253Z,31.78
2022-09-01T12:50:37.146Z,31.58
2022-09-01T12:51:43.821Z,31.18
2022-09-01T12:53:21.097Z,30.93
2022-09-01T12:54:28.857Z,31.03
2022-09-01T12:55:53.766Z,31.06
2022-09-01T12:57:28.877Z,30.72
2022-09-01T12:58:34.187Z,31.00
2022-09-01T12:59:43.205Z,30.52
2022-09-01T13:00:17.675Z,31.22
2022-09-01T13:01:22.682Z,31.55
2022-09-01T13:02:26.922Z,31.16
2022-09-01T13:04:03.120Z,32.71
2022-09-01T13:05:06.759Z,32.20
2022-09-01T13:06:23.362Z,32.39
2022-09-01T13:08:00.941Z,32.02
2022-09-01T13:09:05.249Z,30.90
2022-09-01T13:10:08.443Z,31.47
2022-09-01T13:12:12.989Z,30.60
2022-09-01T13:13:15.928Z,31.12
2022-09-01T13:14:19.473Z,31.28
2022-09-01T13:15:54.576Z,32.18
2022-09-01T13:16:58.254Z,31.17
2022-09-01T13:18:06.476Z,31.29
2022-09-01T13:20:13.900Z,31.19
2022-09-01T13:21:16.876Z,31.38
2022-09-01T13:22:20.010Z,32.14
2022-09-01T13:23:54.945Z,31.95
2022-09-01T13:24:59.322Z,32.43
2022-09-01T13:26:02.791Z,31.83
2022-09-01T13:28:13.155Z,31.14
2022-09-01T13:29:21.425Z,31.26
2022-09-01T13:30:24.288Z,31.55
2022-09-01T13:34:22.626Z,31.35
2022-09-01T13:35:27.613Z,31.12
2022-09-01T13:36:57.559Z,31.02
2022-09-01T13:38:32.482Z,30.86
2022-09-01T13:39:43.557Z,30.86
2022-09-01T13:40:48.253Z,30.72
2022-09-01T13:42:28.590Z,30.66
2022-09-01T13:43:32.317Z,30.38
2022-09-01T13:44:38.182Z,30.64
2022-09-01T13:46:20.274Z,30.88
2022-09-01T13:48:23.128Z,30.78
2022-09-01T13:51:24.224Z,30.30
2022-09-01T13:53:01.091Z,30.26
2022-09-01T13:54:04.256Z,30.50
2022-09-01T13:55:09.391Z,30.23
2022-09-01T13:56:44.785Z,30.36
2022-09-01T13:57:49.039Z,30.51
2022-09-01T13:58:53.797Z,30.73
2022-09-01T14:00:18.349Z,30.76
2022-09-01T14:01:21.780Z,30.78
2022-09-01T14:02:25.078Z,31.41
2022-09-01T14:04:06.102Z,31.44
2022-09-01T14:05:09.578Z,30.65
2022-09-01T14:06:12.942Z,31.23
2022-09-01T14:07:47.747Z,30.72
2022-09-01T14:08:50.618Z,30.58
2022-09-01T14:09:58.110Z,31.23
2022-09-01T14:11:33.163Z,31.30
2022-09-01T14:12:36.130Z,30.96
2022-09-01T14:13:39.667Z,30.86
2022-09-01T14:16:05.409Z,31.25
2022-09-01T14:17:09.141Z,30.40
2022-09-01T14:18:12.208Z,30.50
2022-09-01T14:19:47.123Z,30.66
2022-09-01T14:20:50.299Z,30.50
2022-09-01T14:21:53.863Z,30.99
2022-09-01T14:23:30.473Z,30.60
2022-09-01T14:24:36.339Z,30.37
2022-09-01T14:25:41.857Z,30.69
2022-09-01T14:27:19.910Z,30.65
2022-09-01T14:28:26.479Z,30.78
2022-09-01T14:29:29.466Z,30.09
2022-09-01T14:31:12.212Z,29.89
2022-09-01T14:32:15.046Z,29.71
2022-09-01T14:33:18.039Z,29.74
2022-09-01T14:34:52.655Z,29.67
2022-09-01T14:35:55.541Z,30.31
2022-09-01T14:37:01.484Z,29.66
2022-09-01T14:38:36.406Z,29.44
2022-09-01T14:39:39.406Z,30.23
2022-09-01T14:40:42.655Z,29.88
2022-09-01T14:42:18.884Z,29.99
2022-09-01T14:43:22.339Z,29.40
2022-09-01T14:44:25.172Z,29.04
2022-09-01T14:46:00.161Z,29.05
2022-09-01T14:47:04.081Z,29.09
2022-09-01T14:48:17.090Z,29.54
2022-09-01T14:49:52.176Z,30.15
2022-09-01T14:51:00.501Z,30.35
2022-09-01T14:52:18.042Z,30.13
2022-09-01T14:53:54.111Z,30.67
2022-09-01T14:54:57.064Z,31.35
2022-09-01T14:56:02.689Z,31.08
2022-09-01T14:58:24.314Z,30.89
2022-09-01T14:59:27.347Z,31.23
2022-09-01T15:00:17.928Z,31.23
2022-09-01T15:01:39.690Z,31.16
2022-09-01T15:02:43.097Z,31.19
2022-09-01T15:04:18.604Z,31.17
2022-09-01T15:05:21.971Z,31.15
2022-09-01T15:06:31.935Z,30.84
2022-09-01T15:08:08.302Z,31.05
2022-09-01T15:09:24.787Z,30.03
2022-09-01T15:10:31.326Z,30.47
2022-09-01T15:12:06.028Z,30.15
2022-09-01T15:13:08.903Z,30.06
2022-09-01T15:14:11.975Z,30.27
2022-09-01T15:15:47.305Z,30.76
2022-09-01T15:16:50.792Z,30.52
2022-09-01T15:17:53.883Z,30.35
2022-09-01T15:19:28.714Z,29.97
2022-09-01T15:20:33.716Z,29.98
2022-09-01T15:21:36.722Z,30.68
2022-09-01T15:23:11.694Z,30.23
2022-09-01T15:24:14.631Z,30.34
2022-09-01T15:25:17.591Z,30.92
2022-09-01T15:26:52.595Z,31.04
2022-09-01T15:27:55.385Z,31.12
2022-09-01T15:28:58.374Z,30.95
2022-09-01T15:30:34.058Z,30.46
2022-09-01T15:31:41.084Z,30.42
2022-09-01T15:32:44.185Z,30.59
2022-09-01T15:34:19.136Z,30.81
2022-09-01T15:35:21.867Z,30.76
2022-09-01T15:36:24.890Z,30.98
2022-09-01T15:37:59.830Z,30.88
2022-09-01T15:39:16.076Z,30.66
2022-09-01T15:40:29.937Z,30.63
2022-09-01T15:43:21.282Z,31.08
2022-09-01T15:44:24.546Z,31.24
2022-09-01T15:46:00.161Z,31.62
2022-09-01T15:47:03.738Z,31.79
2022-09-01T15:48:06.738Z,31.79
2022-09-01T15:49:42.180Z,32.25
2022-09-01T15:50:47.878Z,32.43
2022-09-01T15:51:50.757Z,32.55
2022-09-01T15:53:25.491Z,32.01
2022-09-01T15:54:35.414Z,32.16
2022-09-01T15:55:38.243Z,32.32
2022-09-01T15:57:14.848Z,31.67
2022-09-01T15:58:20.418Z,31.42
2022-09-01T15:59:54.416Z,31.41
2022-09-01T16:00:17.633Z,31.41
2022-09-01T16:01:22.463Z,31.70
2022-09-01T16:02:26.260Z,31.91
2022-09-01T16:04:01.942Z,31.62
2022-09-01T16:05:47.075Z,31.52
2022-09-01T16:06:50.175Z,31.57
2022-09-01T16:07:53.600Z,31.58
2022-09-01T16:09:29.331Z,32.03
2022-09-01T16:10:35.111Z,31.80
2022-09-01T16:11:39.989Z,32.10
2022-09-01T16:13:15.184Z,31.83
2022-09-01T16:14:18.181Z,32.14
2022-09-01T16:15:21.312Z,32.36
2022-09-01T16:16:57.093Z,32.15
2022-09-01T16:18:00.089Z,32.26
2022-09-01T16:19:03.492Z,32.20
2022-09-01T16:20:38.878Z,32.13
2022-09-01T16:21:42.055Z,32.04
2022-09-01T16:22:45.203Z,32.23
2022-09-01T16:24:20.173Z,32.02
2022-09-01T16:25:23.476Z,31.74
2022-09-01T16:26:26.809Z,32.19
2022-09-01T16:28:06.824Z,32.07
2022-09-01T16:29:10.343Z,32.28
2022-09-01T16:30:15.745Z,31.73
2022-09-01T16:31:51.837Z,32.30
2022-09-01T16:32:55.193Z,31.95
2022-09-01T16:33:58.451Z,32.04
2022-09-01T16:35:37.472Z,31.89
2022-09-01T16:36:41.453Z,31.99
2022-09-01T16:37:44.824Z,32.09
2022-09-01T16:39:20.166Z,32.37
2022-09-01T16:40:23.560Z,32.19
2022-09-01T16:41:28.120Z,32.33
2022-09-01T16:43:04.025Z,32.58
2022-09-01T16:44:08.165Z,32.63
2022-09-01T16:45:14.278Z,32.82
2022-09-01T16:46:56.447Z,32.39
2022-09-01T16:47:59.860Z,32.48
2022-09-01T16:49:03.249Z,31.98
2022-09-01T16:50:38.841Z,32.45
2022-09-01T16:51:47.311Z,32.19
2022-09-01T16:52:50.708Z,32.12
2022-09-01T16:54:26.016Z,32.20
2022-09-01T16:55:29.472Z,31.78
2022-09-01T16:56:32.898Z,31.65
2022-09-01T16:58:08.506Z,31.63
2022-09-01T16:59:16.655Z,31.80
2022-09-01T17:00:17.880Z,31.58
2022-09-01T17:01:22.604Z,31.75
2022-09-01T17:02:26.513Z,31.51
2022-09-01T17:04:24.483Z,31.98
2022-09-01T17:05:28.342Z,31.93
2022-09-01T17:06:31.788Z,32.17
2022-09-01T17:08:10.724Z,32.20
2022-09-01T17:09:14.618Z,32.40
2022-09-01T17:10:19.162Z,32.81
2022-09-01T17:11:55.265Z,32.73
2022-09-01T17:12:58.852Z,33.17
2022-09-01T17:14:02.548Z,33.47
2022-09-01T17:15:38.019Z,33.63
2022-09-01T17:16:42.968Z,33.78
2022-09-01T17:17:48.002Z,34.04
2022-09-01T17:19:41.824Z,34.26
2022-09-01T17:20:55.031Z,34.21
2022-09-01T17:22:01.770Z,34.49
2022-09-01T17:23:37.476Z,34.58
2022-09-01T17:24:42.028Z,34.84
2022-09-01T17:25:45.519Z,34.78
2022-09-01T17:27:21.531Z,34.81
2022-09-01T17:28:24.872Z,34.98
2022-09-01T17:29:28.286Z,34.85
2022-09-01T17:31:04.116Z,34.99
2022-09-01T17:32:07.894Z,35.25
2022-09-01T17:33:23.442Z,35.18